Jeffrey G Stover — WDF2069 — position and weather

sailwx.info

Track history (hours):
 
Tides and Currents Weather Stations Pressure Air Temp Water Temp Dewpoint Dewpoint Depression Visibility Wind Speed Wind Dir Waves Ship Positions

Jeffrey G Stover

Owner: AEP River Operations LLC, Chesterfield, MO. More information available from US FCC via Universal Licensing System and Coast Guard Vessel Documentation Center.

Last reported at 2015-May-13 16:31 UTC. Time now 2015-May-22 13:01 UTC.
Position N 30°42' W 091°21'.
Warning: this ship's position is 8 days out of date.

Length 64 m; draft 3.1 m.

Type: Tow > 200 m length. MMSI: 367424480.

Date/timePositionNaut miles runAvg speedWind from/ knotsBaromVisibWave heightAir tempDewpointWater temp
2015-May-13 16:31N 30°42' W 091°21'5 4.7
2015-May-13 15:32N 30°39' W 091°18'4 4.5
2015-May-13 14:33N 30°34' W 091°19'4 4.1
2015-May-13 13:33N 30°33' W 091°14'3 2.9
2015-May-13 12:33N 30°30' W 091°16'4 3.7
2015-May-13 11:33N 30°31' W 091°12'5 4.5
2015-May-13 10:33N 30°26' W 091°12'3 2.8
2015-May-13 09:33N 30°23' W 091°13'0 0.0
2015-May-13 08:33N 30°23' W 091°13'0 0.4
2015-May-13 07:33N 30°23' W 091°13'3 2.9
2015-May-13 06:33N 30°21' W 091°12'7 2.2
2015-May-13 03:27N 30°15' W 091°07'3 1.5
2015-May-13 01:33N 30°13' W 091°05'4 0.2
2015-May-12 04:32N 30°16' W 091°07'3 3.3
2015-May-12 03:29N 30°19' W 091°10'5 4.9
2015-May-12 02:33N 30°22' W 091°14'3 3.3
2015-May-12 01:33N 30°24' W 091°12'0 0.0
2015-May-12 00:33N 30°24' W 091°12'0 0.0
2015-May-11 23:31N 30°24' W 091°12'0 0.0
2015-May-11 22:33N 30°24' W 091°12'0 0.0
2015-May-11 21:33N 30°24' W 091°12'0 0.0
2015-May-11 20:33N 30°24' W 091°12'0 0.0
2015-May-11 19:33N 30°24' W 091°12'2 2.2
2015-May-11 18:33N 30°27' W 091°12'5 4.7
2015-May-11 17:33N 30°31' W 091°13'2 1.6
2015-May-11 16:33N 30°32' W 091°15'5 5.1
2015-May-11 15:32N 30°36' W 091°18'6 6.3
2015-May-11 14:33N 30°42' W 091°21'  
Track history (hours):
 
Tides and Currents Weather Stations Pressure Air Temp Water Temp Dewpoint Dewpoint Depression Visibility Wind Speed Wind Dir Waves Ship Positions

Jeffrey G Stover

Owner: AEP River Operations LLC, Chesterfield, MO. More information available from US FCC via Universal Licensing System and Coast Guard Vessel Documentation Center.

Last reported at 2015-May-13 16:31 UTC. Time now 2015-May-22 13:01 UTC.
Position N 30°42' W 091°21'.
Warning: this ship's position is 8 days out of date.

Length 64 m; draft 3.1 m.

Type: Tow > 200 m length. MMSI: 367424480.

Date/timePositionNaut miles runAvg speedWind from/ knotsBaromVisibWave heightAir tempDewpointWater temp
2015-May-13 16:31N 30°42' W 091°21'5 4.7
2015-May-13 15:32N 30°39' W 091°18'4 4.5
2015-May-13 14:33N 30°34' W 091°19'4 4.1
2015-May-13 13:33N 30°33' W 091°14'3 2.9
2015-May-13 12:33N 30°30' W 091°16'4 3.7
2015-May-13 11:33N 30°31' W 091°12'5 4.5
2015-May-13 10:33N 30°26' W 091°12'3 2.8
2015-May-13 09:33N 30°23' W 091°13'0 0.0
2015-May-13 08:33N 30°23' W 091°13'0 0.4
2015-May-13 07:33N 30°23' W 091°13'3 2.9
2015-May-13 06:33N 30°21' W 091°12'7 2.2
2015-May-13 03:27N 30°15' W 091°07'3 1.5
2015-May-13 01:33N 30°13' W 091°05'4 0.2
2015-May-12 04:32N 30°16' W 091°07'3 3.3
2015-May-12 03:29N 30°19' W 091°10'5 4.9
2015-May-12 02:33N 30°22' W 091°14'3 3.3
2015-May-12 01:33N 30°24' W 091°12'0 0.0
2015-May-12 00:33N 30°24' W 091°12'0 0.0
2015-May-11 23:31N 30°24' W 091°12'0 0.0
2015-May-11 22:33N 30°24' W 091°12'0 0.0
2015-May-11 21:33N 30°24' W 091°12'0 0.0
2015-May-11 20:33N 30°24' W 091°12'0 0.0
2015-May-11 19:33N 30°24' W 091°12'2 2.2
2015-May-11 18:33N 30°27' W 091°12'5 4.7
2015-May-11 17:33N 30°31' W 091°13'2 1.6
2015-May-11 16:33N 30°32' W 091°15'5 5.1
2015-May-11 15:32N 30°36' W 091°18'6 6.3
2015-May-11 14:33N 30°42' W 091°21'  

Dump ship's entire track history